Time;durP1;ratioP1;P1;durP2;ratioP2;P2;SDS_P1;SDS_P2;PMS_P1;PMS_P2;Temp;Humidity;BMP_temperature;BMP_pressure;BME280_temperature;BME280_humidity;BME280_pressure;Samples;Min_cycle;Max_cycle;Signal;HPM_P1;HPM_P2
2022/05/09 05:00:14;;;;;;;12.10;11.10;;;14.20;97.20;;;;;;1713758;28;20227;-72
2022/05/09 05:01:04;;;;;;;13.05;11.95;;;14.30;97.20;;;;;;1714207;28;20209;-72
2022/05/09 05:01:56;;;;;;;12.20;11.20;;;14.30;97.20;;;;;;1719558;28;20201;-72
2022/05/09 05:02:47;;;;;;;12.68;11.52;;;14.30;97.20;;;;;;1718234;28;20232;-72
2022/05/09 05:03:39;;;;;;;12.70;11.60;;;14.30;97.20;;;;;;1720618;28;20668;-72
2022/05/09 05:04:30;;;;;;;12.50;11.50;;;14.30;97.20;;;;;;1720506;28;20232;-72
2022/05/09 05:05:23;;;;;;;12.70;11.60;;;14.40;97.20;;;;;;1720580;28;20224;-72
2022/05/09 05:06:14;;;;;;;12.77;11.68;;;14.40;97.20;;;;;;1720634;28;20239;-73
2022/05/09 05:07:06;;;;;;;13.30;12.20;;;14.40;97.20;;;;;;1714846;28;20249;-72
2022/05/09 05:07:58;;;;;;;13.00;11.85;;;14.40;97.20;;;;;;1713763;28;20685;-73
2022/05/09 05:08:50;;;;;;;12.25;11.15;;;14.40;97.20;;;;;;1713636;28;20244;-72
2022/05/09 05:09:41;;;;;;;11.93;10.93;;;14.40;97.20;;;;;;1713945;28;20229;-72
2022/05/09 05:10:33;;;;;;;12.60;11.60;;;14.50;97.20;;;;;;1712702;28;20300;-70
2022/05/09 05:11:24;;;;;;;13.32;12.32;;;14.50;97.20;;;;;;1711120;28;20227;-71
2022/05/09 05:12:15;;;;;;;12.73;11.73;;;14.50;97.20;;;;;;1718333;28;20283;-72
2022/05/09 05:13:07;;;;;;;12.95;11.90;;;14.50;97.20;;;;;;1716962;28;20214;-71
2022/05/09 05:13:58;;;;;;;12.20;11.18;;;14.60;97.20;;;;;;1715863;28;20237;-71
2022/05/09 05:14:49;;;;;;;13.00;12.00;;;14.60;97.20;;;;;;1720408;28;20239;-72
2022/05/09 05:15:42;;;;;;;13.87;12.70;;;14.60;97.20;;;;;;1720621;28;20201;-72
2022/05/09 05:17:43;;;;;;;13.13;12.13;;;14.70;97.20;;;;;;1714153;28;20221;-71
2022/05/09 05:18:34;;;;;;;13.95;12.85;;;14.70;97.20;;;;;;1713538;28;20703;-71
2022/05/09 05:19:26;;;;;;;14.05;12.90;;;14.70;97.20;;;;;;1713754;28;20611;-71
2022/05/09 05:20:17;;;;;;;14.30;12.90;;;14.80;97.20;;;;;;1713774;28;20210;-71
2022/05/09 05:21:10;;;;;;;14.25;12.95;;;14.80;97.20;;;;;;1713272;28;20716;-72
2022/05/09 05:22:02;;;;;;;14.35;13.25;;;14.80;97.20;;;;;;1713874;28;20205;-72
2022/05/09 05:22:55;;;;;;;14.02;12.73;;;14.80;97.20;;;;;;1713778;28;20202;-71
2022/05/09 05:23:47;;;;;;;14.48;13.27;;;14.90;97.20;;;;;;1713699;28;20213;-72
2022/05/09 05:24:41;;;;;;;14.90;13.50;;;14.90;97.20;;;;;;1713779;28;20198;-71
2022/05/09 05:25:31;;;;;;;14.10;12.80;;;14.90;97.20;;;;;;1713798;28;20632;-72
2022/05/09 05:26:23;;;;;;;14.03;12.93;;;15.00;97.20;;;;;;1713820;28;20205;-71
2022/05/09 05:27:14;;;;;;;14.27;13.18;;;15.00;97.20;;;;;;1713793;28;20695;-72
2022/05/09 05:28:06;;;;;;;14.70;13.40;;;15.00;97.20;;;;;;1713719;28;20537;-72
2022/05/09 05:28:57;;;;;;;15.07;13.68;;;15.00;97.20;;;;;;1713501;28;20445;-71
2022/05/09 05:29:50;;;;;;;13.93;12.83;;;15.10;97.20;;;;;;1713598;28;20202;-72
2022/05/09 05:30:43;;;;;;;13.55;12.48;;;15.10;97.20;;;;;;1713864;28;20205;-71
2022/05/09 05:31:34;;;;;;;12.70;11.60;;;15.10;97.20;;;;;;1713849;28;20233;-71
2022/05/09 05:32:27;;;;;;;12.77;11.68;;;15.20;97.20;;;;;;1713738;28;20205;-72
2022/05/09 05:33:20;;;;;;;13.07;11.70;;;15.20;97.20;;;;;;1713786;28;20198;-72
2022/05/09 05:34:11;;;;;;;13.25;12.20;;;15.20;97.20;;;;;;1713631;28;20266;-72
2022/05/09 05:35:03;;;;;;;12.50;11.20;;;15.20;97.20;;;;;;1713874;28;20198;-72
2022/05/09 05:35:54;;;;;;;13.23;12.13;;;15.20;97.20;;;;;;1713091;28;20202;-72
2022/05/09 05:36:46;;;;;;;12.53;11.33;;;15.30;97.20;;;;;;1713776;28;20202;-72
2022/05/09 05:37:37;;;;;;;14.90;10.88;;;15.30;97.20;;;;;;1713557;28;20198;-71
2022/05/09 05:38:29;;;;;;;12.70;11.70;;;15.30;97.20;;;;;;1713435;28;20288;-70
2022/05/09 05:39:19;;;;;;;13.75;12.30;;;15.40;97.20;;;;;;1713759;28;20205;-71
2022/05/09 05:40:14;;;;;;;14.93;11.30;;;15.40;97.20;;;;;;1713670;28;20300;-71
2022/05/09 05:41:05;;;;;;;12.52;11.50;;;15.40;97.20;;;;;;1713771;28;20609;-71
2022/05/09 05:41:57;;;;;;;12.30;11.20;;;15.50;97.20;;;;;;1714078;28;20544;-71
2022/05/09 05:42:48;;;;;;;14.60;13.30;;;15.50;97.20;;;;;;1715068;28;20696;-72
2022/05/09 05:43:39;;;;;;;13.20;12.10;;;15.50;97.20;;;;;;1715053;28;20240;-72
2022/05/09 05:44:31;;;;;;;14.35;13.05;;;15.50;97.20;;;;;;1715035;28;20241;-71
2022/05/09 05:45:24;;;;;;;12.48;11.38;;;15.60;97.20;;;;;;1715132;28;20661;-72
2022/05/09 05:46:16;;;;;;;13.88;12.63;;;15.60;97.20;;;;;;1715081;28;20240;-71
2022/05/09 05:47:09;;;;;;;13.05;11.82;;;15.60;97.20;;;;;;1715050;28;20242;-72
2022/05/09 05:48:00;;;;;;;13.40;12.00;;;15.60;97.20;;;;;;1715126;28;20240;-70
2022/05/09 05:48:52;;;;;;;12.93;11.82;;;15.60;97.20;;;;;;1714685;28;20202;-71
2022/05/09 05:49:43;;;;;;;13.90;12.50;;;15.70;97.20;;;;;;1714751;28;20206;-71
2022/05/09 05:50:37;;;;;;;12.95;11.77;;;15.70;97.20;;;;;;1715007;28;20197;-71
2022/05/09 05:51:28;;;;;;;14.93;12.52;;;15.70;97.20;;;;;;1714930;28;20213;-71
2022/05/09 05:52:19;;;;;;;11.97;10.77;;;15.70;97.20;;;;;;1715037;28;20205;-72
2022/05/09 05:53:10;;;;;;;12.27;11.13;;;15.80;97.20;;;;;;1715054;28;20213;-71
2022/05/09 05:54:02;;;;;;;12.83;11.67;;;15.80;97.20;;;;;;1715058;28;20221;-72
2022/05/09 05:54:52;;;;;;;12.88;10.98;;;15.80;97.20;;;;;;1714957;28;20205;-71
2022/05/09 05:55:44;;;;;;;12.50;11.40;;;15.80;97.20;;;;;;1715052;28;20662;-72
2022/05/09 05:56:37;;;;;;;11.95;10.75;;;15.90;97.20;;;;;;1714982;28;20233;-71
2022/05/09 05:57:31;;;;;;;12.52;11.35;;;15.90;97.20;;;;;;1714904;28;20198;-72
2022/05/09 05:58:23;;;;;;;12.82;11.65;;;15.90;97.20;;;;;;1714696;28;20206;-72
2022/05/09 05:59:14;;;;;;;14.23;11.38;;;15.90;97.20;;;;;;1714857;28;20209;-71
2022/05/09 06:00:08;;;;;;;12.23;11.00;;;16.00;97.20;;;;;;1714890;28;20205;-72
2022/05/09 06:01:00;;;;;;;11.35;10.45;;;16.00;97.20;;;;;;1715090;28;20272;-72
2022/05/09 06:01:52;;;;;;;14.98;11.90;;;16.00;97.20;;;;;;1714887;28;20240;-71
2022/05/09 06:02:44;;;;;;;11.68;10.40;;;16.00;97.20;;;;;;1714943;28;20205;-71
2022/05/09 06:03:35;;;;;;;11.98;10.98;;;16.10;97.20;;;;;;1714887;28;20202;-72
2022/05/09 06:04:26;;;;;;;12.03;10.43;;;16.10;97.20;;;;;;1714656;28;20200;-72
2022/05/09 06:05:19;;;;;;;11.82;10.23;;;16.10;97.20;;;;;;1715034;28;20229;-71
2022/05/09 06:06:13;;;;;;;12.27;11.20;;;16.10;97.20;;;;;;1710447;28;20237;-72
2022/05/09 06:07:04;;;;;;;12.40;11.02;;;16.10;97.20;;;;;;1708344;28;20297;-72
2022/05/09 06:07:56;;;;;;;15.18;11.35;;;16.20;97.20;;;;;;1708187;28;20198;-71
2022/05/09 06:08:48;;;;;;;12.00;10.85;;;16.20;97.20;;;;;;1707881;28;20289;-71
2022/05/09 06:09:40;;;;;;;12.15;11.05;;;16.20;97.20;;;;;;1708264;28;20194;-72
2022/05/09 06:10:31;;;;;;;13.57;11.80;;;16.20;97.20;;;;;;1708187;28;20237;-71
2022/05/09 06:11:22;;;;;;;11.80;10.70;;;16.30;97.20;;;;;;1708281;28;20207;-72
2022/05/09 06:12:16;;;;;;;13.57;10.57;;;16.30;97.20;;;;;;1708187;28;20234;-71
2022/05/09 06:13:08;;;;;;;11.55;10.45;;;16.30;97.20;;;;;;1714152;28;20746;-72
2022/05/09 06:14:00;;;;;;;11.73;10.00;;;16.30;97.20;;;;;;1714718;28;20509;-71
2022/05/09 06:15:57;;;;;;;12.85;9.90;;;16.40;97.20;;;;;;1714621;28;20616;-72
2022/05/09 06:16:48;;;;;;;12.13;10.07;;;16.40;97.20;;;;;;1714907;28;20241;-72
2022/05/09 06:17:41;;;;;;;11.40;10.40;;;16.50;97.20;;;;;;1714878;28;20197;-71
2022/05/09 06:18:32;;;;;;;12.75;10.30;;;16.50;97.20;;;;;;1714218;28;20248;-71
2022/05/09 06:19:24;;;;;;;10.65;9.75;;;16.50;97.20;;;;;;1713325;28;20205;-72
2022/05/09 06:20:15;;;;;;;10.30;9.50;;;16.60;97.20;;;;;;1714196;28;20202;-72
2022/05/09 06:21:07;;;;;;;14.48;10.27;;;16.60;97.20;;;;;;1713488;28;20249;-73
2022/05/09 06:21:59;;;;;;;11.05;10.15;;;16.60;97.20;;;;;;1713666;28;20579;-72
2022/05/09 06:22:52;;;;;;;11.80;10.80;;;16.60;97.20;;;;;;1714308;28;20197;-72
2022/05/09 06:23:43;;;;;;;12.05;10.85;;;16.60;97.20;;;;;;1713886;28;20213;-72
2022/05/09 06:24:34;;;;;;;11.90;10.10;;;16.70;97.20;;;;;;1713371;28;20202;-71
2022/05/09 06:25:27;;;;;;;10.98;10.18;;;16.70;97.20;;;;;;1713969;28;20232;-71
2022/05/09 06:26:21;;;;;;;10.50;9.60;;;16.70;97.20;;;;;;1714144;28;20395;-73
2022/05/09 06:27:11;;;;;;;11.18;10.02;;;16.70;97.20;;;;;;1714705;28;20206;-71
2022/05/09 06:28:04;;;;;;;10.60;9.70;;;16.80;97.20;;;;;;1714728;28;20209;-72
2022/05/09 06:28:55;;;;;;;12.75;9.40;;;16.80;97.20;;;;;;1714361;28;20230;-71
2022/05/09 06:29:47;;;;;;;11.30;10.30;;;16.80;97.20;;;;;;1714668;28;20206;-71
2022/05/09 06:30:38;;;;;;;10.98;10.00;;;16.90;97.20;;;;;;1714568;28;20285;-72
2022/05/09 06:31:30;;;;;;;12.60;11.50;;;16.90;97.20;;;;;;1714768;28;20540;-72
2022/05/09 06:32:24;;;;;;;11.00;10.10;;;16.90;97.20;;;;;;1714842;28;20222;-71
2022/05/09 06:33:23;;;;;;;11.25;10.20;;;17.00;97.20;;;;;;1714738;28;20209;-71
2022/05/09 06:34:14;;;;;;;12.73;9.95;;;17.00;97.20;;;;;;1714666;28;20728;-71
2022/05/09 06:35:09;;;;;;;13.02;10.05;;;17.00;97.20;;;;;;1714677;28;20213;-71
2022/05/09 06:36:01;;;;;;;11.50;10.00;;;17.00;97.20;;;;;;1714801;28;20198;-72
2022/05/09 06:36:52;;;;;;;10.27;9.38;;;17.10;97.20;;;;;;1714701;28;20263;-71
2022/05/09 06:37:44;;;;;;;10.70;9.80;;;17.10;97.20;;;;;;1714750;28;20201;-72
2022/05/09 06:38:34;;;;;;;10.40;9.50;;;17.10;97.20;;;;;;1714413;28;20198;-71
2022/05/09 06:39:27;;;;;;;10.73;9.73;;;17.10;97.20;;;;;;1714709;28;20202;-72
2022/05/09 06:40:18;;;;;;;10.30;9.50;;;17.10;97.20;;;;;;1714735;28;20511;-72
2022/05/09 06:41:10;;;;;;;10.47;9.07;;;17.20;97.20;;;;;;1714797;28;20260;-71
2022/05/09 06:42:03;;;;;;;11.07;10.05;;;17.20;97.20;;;;;;1714786;28;20240;-71
2022/05/09 06:42:55;;;;;;;11.20;9.95;;;17.20;97.20;;;;;;1714673;28;20208;-70
2022/05/09 06:43:47;;;;;;;11.75;10.40;;;17.20;97.20;;;;;;1714569;28;20241;-71
2022/05/09 06:44:38;;;;;;;11.52;10.50;;;17.30;97.20;;;;;;1714516;28;20252;-72
2022/05/09 06:45:30;;;;;;;10.55;9.63;;;17.30;97.20;;;;;;1714676;28;20241;-71
2022/05/09 06:46:22;;;;;;;10.57;9.48;;;17.30;97.20;;;;;;1714803;28;20285;-72
2022/05/09 06:47:13;;;;;;;10.23;9.35;;;17.40;97.20;;;;;;1714727;28;20209;-71
2022/05/09 06:48:05;;;;;;;10.27;9.20;;;17.40;97.20;;;;;;1714613;28;20198;-71
2022/05/09 06:48:58;;;;;;;10.30;9.32;;;17.40;97.20;;;;;;1714349;28;20229;-72
2022/05/09 06:49:49;;;;;;;9.98;9.23;;;17.40;97.20;;;;;;1714577;28;20697;-71
2022/05/09 06:50:40;;;;;;;11.48;10.40;;;17.50;97.20;;;;;;1714790;28;20240;-72
2022/05/09 06:51:32;;;;;;;11.33;10.33;;;17.50;97.20;;;;;;1714641;28;20213;-71
2022/05/09 06:52:22;;;;;;;11.70;10.70;;;17.50;97.20;;;;;;1714648;28;20214;-72
2022/05/09 06:53:14;;;;;;;10.80;9.97;;;17.60;97.20;;;;;;1714143;28;20202;-72
2022/05/09 06:54:05;;;;;;;11.27;10.23;;;17.60;97.20;;;;;;1713891;28;20240;-72
2022/05/09 06:54:57;;;;;;;11.35;10.25;;;17.60;97.20;;;;;;1714699;28;20281;-72
2022/05/09 06:55:50;;;;;;;11.32;10.30;;;17.70;97.20;;;;;;1714665;28;20237;-71
2022/05/09 06:56:41;;;;;;;10.32;9.43;;;17.70;97.20;;;;;;1714659;28;20201;-72
2022/05/09 06:57:36;;;;;;;13.60;9.90;;;17.70;97.20;;;;;;1714576;28;20212;-72
2022/05/09 06:58:28;;;;;;;10.85;9.98;;;17.80;97.20;;;;;;1714238;28;20209;-71
2022/05/09 06:59:20;;;;;;;10.80;9.82;;;17.80;97.20;;;;;;1714565;28;20198;-71
2022/05/09 07:00:15;;;;;;;11.95;10.77;;;17.90;97.20;;;;;;1714437;28;20202;-71
2022/05/09 07:01:13;;;;;;;10.30;9.40;;;17.90;97.20;;;;;;1714287;28;20209;-71
2022/05/09 07:02:05;;;;;;;11.93;10.75;;;17.90;97.20;;;;;;1714722;28;20218;-71
2022/05/09 07:02:56;;;;;;;10.55;9.45;;;18.00;97.20;;;;;;1714852;28;20234;-71
2022/05/09 07:03:48;;;;;;;11.90;10.90;;;18.00;97.20;;;;;;1714519;28;20723;-71
2022/05/09 07:04:40;;;;;;;11.25;10.10;;;18.00;97.20;;;;;;1714730;28;20221;-71
2022/05/09 07:05:32;;;;;;;11.80;10.70;;;18.10;97.20;;;;;;1714600;28;20213;-71
2022/05/09 07:06:23;;;;;;;10.50;9.57;;;18.10;97.20;;;;;;1714619;28;20229;-71
2022/05/09 07:07:15;;;;;;;12.60;11.53;;;18.10;97.20;;;;;;1714638;28;20201;-71
2022/05/09 07:08:07;;;;;;;12.00;10.88;;;18.10;97.20;;;;;;1714653;28;20221;-71
2022/05/09 07:08:59;;;;;;;12.90;9.75;;;18.10;97.20;;;;;;1714247;28;20704;-71
2022/05/09 07:09:50;;;;;;;10.43;9.52;;;18.20;97.20;;;;;;1714538;28;20272;-72
2022/05/09 07:10:42;;;;;;;10.18;9.35;;;18.20;97.20;;;;;;1714609;28;20201;-72
2022/05/09 07:11:33;;;;;;;11.02;10.13;;;18.20;97.20;;;;;;1714494;28;20249;-71
2022/05/09 07:12:25;;;;;;;10.83;9.93;;;18.30;97.20;;;;;;1714630;28;20202;-72
2022/05/09 07:13:16;;;;;;;9.77;8.95;;;18.30;97.20;;;;;;1714589;28;20262;-71
2022/05/09 07:14:07;;;;;;;11.30;10.32;;;18.40;97.20;;;;;;1714520;28;20229;-72
2022/05/09 07:14:59;;;;;;;10.38;9.57;;;18.40;97.20;;;;;;1714620;28;20202;-72
2022/05/09 07:15:50;;;;;;;10.15;9.35;;;18.40;97.20;;;;;;1714508;28;20585;-71
2022/05/09 07:16:42;;;;;;;9.37;8.53;;;18.40;97.20;;;;;;1714669;28;20209;-71
2022/05/09 07:17:32;;;;;;;10.00;9.20;;;18.40;97.20;;;;;;1714202;28;20472;-72
2022/05/09 07:18:27;;;;;;;12.30;9.40;;;18.50;97.20;;;;;;1714247;28;20712;-72
2022/05/09 07:19:18;;;;;;;10.05;9.05;;;18.50;97.20;;;;;;1714512;28;20202;-72
2022/05/09 07:20:12;;;;;;;9.90;9.00;;;18.50;97.20;;;;;;1714384;28;20263;-71
2022/05/09 07:21:05;;;;;;;9.13;8.27;;;18.60;97.20;;;;;;1714614;28;20244;-72
2022/05/09 07:21:55;;;;;;;9.07;8.27;;;18.60;97.20;;;;;;1714483;28;20202;-72
2022/05/09 07:22:48;;;;;;;9.20;8.50;;;18.70;97.20;;;;;;1714613;28;20202;-72
2022/05/09 07:23:39;;;;;;;9.95;9.05;;;18.70;97.20;;;;;;1714394;28;20586;-72
2022/05/09 07:24:31;;;;;;;9.77;8.98;;;18.80;97.20;;;;;;1714516;28;20202;-71
2022/05/09 07:25:23;;;;;;;10.43;9.52;;;18.80;97.20;;;;;;1714540;28;20692;-72
2022/05/09 07:26:15;;;;;;;9.90;9.07;;;18.90;97.20;;;;;;1714422;28;20705;-71
2022/05/09 07:27:07;;;;;;;9.95;8.73;;;18.90;97.20;;;;;;1714407;28;20238;-71
2022/05/09 07:27:58;;;;;;;9.73;8.27;;;18.90;97.20;;;;;;1714472;28;20669;-71
2022/05/09 07:28:49;;;;;;;9.05;8.27;;;19.00;97.20;;;;;;1713989;28;20217;-71
2022/05/09 07:29:41;;;;;;;9.80;9.10;;;19.00;97.20;;;;;;1714460;28;20208;-72
2022/05/09 07:30:32;;;;;;;10.50;9.70;;;19.10;97.20;;;;;;1714438;28;20464;-71
2022/05/09 07:31:24;;;;;;;10.87;9.73;;;19.10;97.20;;;;;;1714493;28;20375;-72
2022/05/09 07:32:15;;;;;;;10.85;9.85;;;19.10;97.20;;;;;;1714410;28;20584;-71
2022/05/09 07:33:06;;;;;;;9.93;9.10;;;19.20;97.20;;;;;;1714569;28;20609;-70
2022/05/09 07:33:57;;;;;;;10.02;9.13;;;19.20;97.20;;;;;;1714141;28;20226;-71
2022/05/09 07:34:51;;;;;;;9.60;8.83;;;19.20;97.20;;;;;;1714311;28;20281;-71
2022/05/09 07:35:44;;;;;;;9.35;8.65;;;19.20;97.20;;;;;;1714499;28;20205;-71
2022/05/09 07:36:36;;;;;;;10.95;9.85;;;19.30;97.20;;;;;;1714357;28;20202;-71
2022/05/09 07:37:27;;;;;;;10.52;9.52;;;19.30;97.20;;;;;;1714370;28;20224;-71
2022/05/09 07:38:18;;;;;;;11.00;9.20;;;19.30;97.20;;;;;;1714088;28;20377;-71
2022/05/09 07:39:10;;;;;;;9.45;8.75;;;19.40;97.20;;;;;;1714367;28;20245;-72
2022/05/09 07:40:01;;;;;;;9.65;8.95;;;19.40;97.20;;;;;;1714343;28;20225;-71
2022/05/09 07:40:53;;;;;;;10.10;9.20;;;19.50;97.20;;;;;;1714328;28;20224;-72
2022/05/09 07:41:43;;;;;;;9.70;8.95;;;19.50;97.20;;;;;;1714351;28;20206;-72
2022/05/09 07:42:35;;;;;;;10.57;9.77;;;19.50;97.20;;;;;;1714395;28;20212;-72
2022/05/09 07:43:28;;;;;;;10.98;10.00;;;19.60;97.20;;;;;;1714327;28;20242;-72
2022/05/09 07:44:20;;;;;;;9.95;9.15;;;19.60;97.20;;;;;;1714404;28;20209;-72
2022/05/09 07:45:13;;;;;;;10.30;9.50;;;19.60;97.20;;;;;;1714251;28;20314;-72
2022/05/09 07:46:05;;;;;;;10.00;9.02;;;19.60;97.20;;;;;;1714326;28;20201;-72
2022/05/09 07:46:56;;;;;;;9.30;8.35;;;19.70;97.20;;;;;;1714316;28;20202;-72
2022/05/09 07:47:47;;;;;;;9.15;8.30;;;19.70;97.20;;;;;;1714306;28;20641;-72
2022/05/09 07:48:40;;;;;;;10.47;9.63;;;19.80;97.20;;;;;;1713895;28;20220;-72
2022/05/09 07:49:30;;;;;;;9.48;8.77;;;19.80;97.20;;;;;;1714064;28;20221;-72
2022/05/09 07:50:22;;;;;;;9.57;8.77;;;19.90;97.20;;;;;;1714350;28;20226;-71
2022/05/09 07:51:15;;;;;;;9.85;8.85;;;19.90;97.20;;;;;;1713938;28;20277;-72
2022/05/09 07:52:09;;;;;;;9.43;8.65;;;20.00;97.20;;;;;;1714350;28;20689;-72
2022/05/09 07:53:05;;;;;;;9.65;8.75;;;20.00;97.20;;;;;;1714292;28;20289;-72
2022/05/09 07:53:56;;;;;;;9.98;9.07;;;20.00;97.20;;;;;;1714244;28;20226;-72
2022/05/09 07:54:48;;;;;;;9.02;8.32;;;20.10;97.20;;;;;;1714285;28;20217;-72
2022/05/09 07:55:42;;;;;;;10.63;9.20;;;20.20;97.20;;;;;;1714189;28;20202;-71
2022/05/09 07:56:34;;;;;;;15.20;13.98;;;20.20;97.20;;;;;;1714100;28;20289;-72
2022/05/09 07:57:25;;;;;;;12.43;11.23;;;20.30;97.20;;;;;;1714221;28;20244;-71
2022/05/09 07:58:17;;;;;;;12.52;11.52;;;20.30;97.20;;;;;;1713872;28;20205;-72
2022/05/09 07:59:08;;;;;;;12.00;11.05;;;20.40;97.20;;;;;;1714234;28;20206;-72
2022/05/09 07:59:59;;;;;;;15.17;13.70;;;20.50;97.20;;;;;;1714168;28;20201;-71
2022/05/09 08:00:58;;;;;;;13.65;12.30;;;20.50;97.20;;;;;;1714261;28;20210;-71
2022/05/09 08:01:49;;;;;;;11.05;9.95;;;20.50;97.20;;;;;;1714256;28;20213;-72
2022/05/09 08:02:41;;;;;;;11.67;10.67;;;20.60;97.20;;;;;;1714251;28;20193;-72
2022/05/09 08:03:34;;;;;;;11.73;10.68;;;20.60;97.20;;;;;;1713997;28;20835;-72
2022/05/09 08:04:25;;;;;;;12.52;10.73;;;20.70;97.20;;;;;;1714372;28;20284;-71
2022/05/09 08:05:16;;;;;;;14.30;12.82;;;20.70;97.20;;;;;;1713997;28;20733;-72
2022/05/09 08:06:08;;;;;;;12.53;11.37;;;20.80;97.20;;;;;;1714187;28;20701;-72
2022/05/09 08:07:01;;;;;;;14.52;13.23;;;20.80;97.20;;;;;;1714241;28;20236;-72
2022/05/09 08:07:53;;;;;;;13.25;12.07;;;20.80;97.20;;;;;;1714114;28;20214;-72
2022/05/09 08:08:48;;;;;;;13.52;12.20;;;20.80;97.20;;;;;;1713443;28;20202;-72
2022/05/09 08:09:39;;;;;;;13.82;12.63;;;20.90;97.20;;;;;;1714095;28;20225;-72
2022/05/09 08:10:31;;;;;;;13.27;11.90;;;20.90;97.20;;;;;;1714158;28;20201;-73
2022/05/09 08:11:22;;;;;;;11.43;10.43;;;21.00;97.20;;;;;;1714239;28;20206;-72
2022/05/09 08:12:13;;;;;;;12.70;11.45;;;21.00;97.20;;;;;;1714080;28;20201;-72
2022/05/09 08:13:06;;;;;;;10.50;9.68;;;21.00;97.20;;;;;;1714194;28;20648;-72
2022/05/09 08:13:57;;;;;;;11.07;10.10;;;21.10;97.20;;;;;;1713910;28;20268;-72
2022/05/09 08:14:49;;;;;;;10.40;9.50;;;21.10;97.20;;;;;;1714105;28;20208;-72
2022/05/09 08:15:41;;;;;;;10.90;9.90;;;21.10;97.20;;;;;;1714169;28;20527;-72
2022/05/09 08:16:33;;;;;;;10.77;9.15;;;21.10;97.20;;;;;;1714003;28;20697;-72
2022/05/09 08:17:24;;;;;;;11.13;8.82;;;21.10;97.20;;;;;;1714114;28;20206;-72
2022/05/09 08:18:15;;;;;;;10.90;9.90;;;21.10;97.20;;;;;;1714016;28;20244;-73
2022/05/09 08:19:07;;;;;;;10.85;9.73;;;21.20;97.20;;;;;;1714130;28;20304;-73
2022/05/09 08:19:58;;;;;;;9.45;8.55;;;21.20;97.20;;;;;;1713973;28;20616;-72
2022/05/09 08:20:51;;;;;;;10.63;9.73;;;21.30;97.20;;;;;;1714069;28;20662;-72
2022/05/09 08:21:41;;;;;;;9.90;9.00;;;21.40;97.20;;;;;;1714133;28;20664;-72
2022/05/09 08:22:35;;;;;;;9.80;8.90;;;21.40;97.20;;;;;;1714017;28;20632;-72
2022/05/09 08:23:26;;;;;;;10.07;9.27;;;21.50;97.20;;;;;;1713975;28;20496;-73
2022/05/09 08:24:18;;;;;;;9.68;8.77;;;21.60;97.20;;;;;;1713885;28;20217;-72
2022/05/09 08:25:11;;;;;;;9.70;8.80;;;21.60;97.20;;;;;;1713526;28;20201;-72
2022/05/09 08:26:03;;;;;;;9.43;8.52;;;21.70;97.20;;;;;;1714079;28;20640;-72
2022/05/09 08:26:55;;;;;;;10.65;9.55;;;21.70;97.20;;;;;;1713968;28;20267;-73
2022/05/09 08:27:45;;;;;;;9.63;8.80;;;21.80;97.20;;;;;;1714066;28;20202;-72
2022/05/09 08:28:37;;;;;;;9.80;8.90;;;21.80;97.20;;;;;;1713782;28;20202;-72
2022/05/09 08:29:28;;;;;;;11.35;8.18;;;21.90;97.20;;;;;;1713863;28;20217;-72
2022/05/09 08:30:20;;;;;;;9.40;8.60;;;21.90;97.20;;;;;;1714045;28;20296;-72
2022/05/09 08:31:11;;;;;;;9.45;8.55;;;22.00;97.20;;;;;;1713866;28;20452;-72
2022/05/09 08:32:03;;;;;;;9.70;8.90;;;22.10;97.20;;;;;;1714099;28;20574;-73
2022/05/09 08:32:55;;;;;;;9.80;9.00;;;22.10;97.20;;;;;;1714018;28;20221;-73
2022/05/09 08:33:47;;;;;;;10.73;9.80;;;22.20;97.20;;;;;;1713791;28;20204;-73
2022/05/09 08:34:38;;;;;;;9.95;9.00;;;22.20;97.20;;;;;;1713952;28;20202;-73
2022/05/09 08:35:31;;;;;;;10.43;9.43;;;22.30;97.20;;;;;;1714004;28;20205;-73
2022/05/09 08:37:33;;;;;;;12.00;9.80;;;22.40;97.20;;;;;;1714060;28;20204;-73
2022/05/09 08:38:25;;;;;;;10.30;9.30;;;22.40;97.20;;;;;;1713609;28;20205;-72
2022/05/09 08:39:17;;;;;;;10.73;9.75;;;22.40;97.20;;;;;;1713945;28;20201;-72
2022/05/09 08:40:10;;;;;;;9.82;9.02;;;22.50;97.20;;;;;;1713814;28;20282;-72
2022/05/09 08:41:09;;;;;;;9.43;8.63;;;22.50;97.20;;;;;;1713781;28;20241;-72
2022/05/09 08:42:04;;;;;;;9.68;8.88;;;22.50;97.20;;;;;;1713968;28;20213;-72
2022/05/09 08:43:01;;;;;;;10.20;9.30;;;22.60;97.20;;;;;;1713880;28;20208;-73
2022/05/09 08:44:08;;;;;;;10.55;9.65;;;22.60;97.20;;;;;;1713888;28;20264;-73
2022/05/09 08:45:14;;;;;;;11.52;9.25;;;22.70;97.20;;;;;;1714054;28;20198;-72
2022/05/09 08:46:16;;;;;;;10.57;8.90;;;22.70;97.20;;;;;;1714019;28;20214;-72
2022/05/09 08:47:34;;;;;;;9.90;8.90;;;22.70;97.20;;;;;;1713947;28;20677;-72
2022/05/09 08:48:32;;;;;;;10.05;9.23;;;22.80;97.20;;;;;;1713529;28;20239;-72
2022/05/09 08:49:39;;;;;;;9.90;9.00;;;22.80;97.20;;;;;;1713859;28;20205;-73
2022/05/09 08:50:40;;;;;;;9.57;8.73;;;22.90;97.20;;;;;;1713899;28;20213;-72
2022/05/09 08:51:42;;;;;;;12.18;8.48;;;22.90;97.20;;;;;;1713947;28;20210;-72
2022/05/09 08:52:39;;;;;;;10.02;8.30;;;23.00;97.20;;;;;;1713872;28;20218;-73
2022/05/09 08:53:36;;;;;;;8.40;7.50;;;23.00;97.20;;;;;;1713775;28;20210;-72
2022/05/09 08:54:28;;;;;;;8.70;7.75;;;23.10;97.20;;;;;;1714011;28;20241;-72
2022/05/09 08:55:24;;;;;;;9.68;8.68;;;23.20;97.20;;;;;;1713849;28;20209;-71
2022/05/09 08:56:17;;;;;;;10.15;9.18;;;23.30;97.20;;;;;;1713936;28;20208;-72
2022/05/09 08:57:13;;;;;;;9.35;8.55;;;23.30;97.20;;;;;;1713920;28;20244;-72
2022/05/09 08:58:23;;;;;;;8.93;8.13;;;23.30;97.20;;;;;;1713535;28;20248;-71
2022/05/09 08:59:23;;;;;;;8.00;7.20;;;23.30;97.20;;;;;;1713881;28;20604;-71
2022/05/09 09:00:18;;;;;;;8.43;7.72;;;23.40;97.20;;;;;;1713785;28;20704;-71
2022/05/09 09:01:13;;;;;;;9.15;8.30;;;23.50;97.20;;;;;;1713912;28;20205;-72
2022/05/09 09:02:11;;;;;;;9.18;8.30;;;23.50;97.20;;;;;;1713581;28;20233;-72
2022/05/09 09:03:19;;;;;;;8.80;8.10;;;23.60;97.20;;;;;;1713330;28;20272;-72
2022/05/09 09:04:21;;;;;;;9.25;8.45;;;23.60;97.20;;;;;;1709198;28;20304;-72
2022/05/09 09:05:14;;;;;;;7.60;7.00;;;23.60;97.20;;;;;;1711524;28;20263;-71
2022/05/09 09:06:15;;;;;;;8.90;8.18;;;23.70;97.20;;;;;;1713734;28;20226;-71
2022/05/09 09:07:37;;;;;;;8.23;7.63;;;23.70;97.20;;;;;;1713386;28;20720;-71
2022/05/09 09:08:38;;;;;;;8.48;7.57;;;23.80;97.20;;;;;;1706080;28;20205;-71
2022/05/09 09:09:45;;;;;;;8.85;8.02;;;23.90;97.20;;;;;;1713491;28;20214;-71
2022/05/09 09:10:44;;;;;;;8.90;8.05;;;23.90;97.20;;;;;;1713679;28;20202;-71
2022/05/09 09:11:45;;;;;;;8.25;7.45;;;24.00;97.20;;;;;;1713794;28;20217;-71
2022/05/09 09:12:46;;;;;;;9.20;8.30;;;24.10;97.20;;;;;;1713718;28;20246;-71
2022/05/09 09:13:59;;;;;;;8.05;7.45;;;24.10;97.20;;;;;;1713437;28;20198;-72
2022/05/09 09:15:59;;;;;;;9.70;8.80;;;24.20;97.20;;;;;;1718066;28;20228;-76
2022/05/09 09:17:05;;;;;;;8.95;8.23;;;24.30;97.20;;;;;;1718528;28;20206;-75
2022/05/09 09:18:09;;;;;;;8.77;8.07;;;24.40;97.20;;;;;;1719803;28;20205;-75
2022/05/09 09:19:22;;;;;;;9.05;8.25;;;24.40;97.20;;;;;;1720439;28;20216;-75
2022/05/09 09:20:17;;;;;;;9.95;7.90;;;24.50;97.20;;;;;;1719056;28;20204;-75
2022/05/09 09:21:19;;;;;;;7.55;6.85;;;24.60;97.20;;;;;;1716509;28;20577;-73
2022/05/09 09:22:21;;;;;;;7.68;7.07;;;24.60;97.20;;;;;;1718454;28;20559;-74
2022/05/09 09:23:21;;;;;;;7.38;6.78;;;24.70;97.20;;;;;;1718876;28;20224;-73
2022/05/09 09:24:27;;;;;;;8.93;7.28;;;24.70;97.20;;;;;;1718685;28;20212;-75
2022/05/09 09:25:31;;;;;;;8.30;7.60;;;24.80;97.20;;;;;;1719171;28;20275;-74
2022/05/09 09:26:28;;;;;;;7.93;7.32;;;24.80;97.20;;;;;;1720174;28;20201;-74
2022/05/09 09:27:34;;;;;;;7.70;7.10;;;24.90;97.20;;;;;;1720062;28;20197;-74
2022/05/09 09:28:33;;;;;;;7.97;7.22;;;24.90;97.20;;;;;;1717205;28;20240;-73
2022/05/09 09:29:30;;;;;;;7.80;7.20;;;25.00;97.20;;;;;;1720102;28;20189;-73
2022/05/09 09:30:23;;;;;;;7.18;6.68;;;25.00;97.20;;;;;;1720037;28;20245;-74
2022/05/09 09:31:17;;;;;;;8.60;7.90;;;25.10;97.20;;;;;;1720024;28;20208;-74
2022/05/09 09:32:12;;;;;;;7.63;6.93;;;25.20;97.20;;;;;;1718077;28;20570;-72
2022/05/09 09:33:06;;;;;;;7.82;7.13;;;25.30;97.20;;;;;;1723343;28;20575;-73
2022/05/09 09:33:59;;;;;;;7.95;7.30;;;25.30;97.20;;;;;;1724540;28;20256;-74
2022/05/09 09:34:58;;;;;;;8.05;7.25;;;25.40;97.20;;;;;;1721134;28;20688;-74
2022/05/09 09:35:56;;;;;;;9.15;7.18;;;25.50;97.20;;;;;;1726825;28;20541;-74
2022/05/09 09:36:53;;;;;;;8.38;7.63;;;25.60;97.20;;;;;;1726679;28;20243;-74
2022/05/09 09:37:49;;;;;;;8.23;7.57;;;25.60;97.20;;;;;;1726699;28;20236;-73
2022/05/09 09:38:46;;;;;;;8.27;7.53;;;25.70;97.20;;;;;;1726351;28;20262;-73